Time;durP1;ratioP1;P1;durP2;ratioP2;P2;SDS_P1;SDS_P2;PMS_P1;PMS_P2;Temp;Humidity;BMP_temperature;BMP_pressure;BME280_temperature;BME280_humidity;BME280_pressure;Samples;Min_cycle;Max_cycle;Signal;HPM_P1;HPM_P2
2022/12/27 00:00:22;;;;;;;31.60;24.23;;;7.50;99.90;;;;;;4913444;28;20050;-82
2022/12/27 00:02:49;;;;;;;27.60;24.17;;;7.40;99.90;;;;;;4900114;29;20055;-82
2022/12/27 00:05:15;;;;;;;29.07;25.27;;;7.40;99.90;;;;;;4899767;29;20036;-81
2022/12/27 00:07:42;;;;;;;31.37;25.57;;;7.40;99.90;;;;;;4884445;29;20048;-82
2022/12/27 00:10:09;;;;;;;28.83;23.93;;;7.40;99.90;;;;;;4902373;29;20031;-82
2022/12/27 00:12:35;;;;;;;28.67;25.50;;;7.40;99.90;;;;;;4918510;29;20508;-82
2022/12/27 00:15:02;;;;;;;38.50;28.40;;;7.40;99.90;;;;;;4931897;29;20105;-82
2022/12/27 00:17:28;;;;;;;33.33;26.20;;;7.40;99.90;;;;;;4913047;29;20497;-82
2022/12/27 00:19:54;;;;;;;30.13;25.77;;;7.40;99.90;;;;;;4911176;29;20046;-82
2022/12/27 00:22:20;;;;;;;29.00;25.83;;;7.30;99.90;;;;;;4902155;29;20091;-82
2022/12/27 00:24:46;;;;;;;29.60;25.63;;;7.30;99.90;;;;;;4918666;29;20425;-82
2022/12/27 00:27:12;;;;;;;34.03;26.00;;;7.30;99.90;;;;;;4933418;29;20047;-82
2022/12/27 00:29:38;;;;;;;30.70;25.43;;;7.30;99.90;;;;;;4937389;29;20046;-82
2022/12/27 00:32:04;;;;;;;35.63;26.77;;;7.30;99.90;;;;;;4908900;28;20052;-82
2022/12/27 00:34:31;;;;;;;26.83;24.03;;;7.30;99.90;;;;;;4915905;29;20371;-82
2022/12/27 00:36:57;;;;;;;26.67;23.93;;;7.30;99.90;;;;;;4916557;29;20040;-82
2022/12/27 00:39:23;;;;;;;32.90;26.10;;;7.30;99.90;;;;;;4933893;29;20027;-82
2022/12/27 00:41:49;;;;;;;33.07;25.03;;;7.30;99.90;;;;;;4933484;29;20124;-82
2022/12/27 00:44:15;;;;;;;35.03;25.57;;;7.30;99.90;;;;;;4918173;29;20516;-82
2022/12/27 00:46:41;;;;;;;37.77;26.17;;;7.20;99.90;;;;;;4901100;29;20040;-82
2022/12/27 00:49:07;;;;;;;31.80;26.80;;;7.20;99.90;;;;;;4898652;29;20043;-82
2022/12/27 00:51:33;;;;;;;34.27;25.03;;;7.20;99.90;;;;;;4916272;29;20040;-82
2022/12/27 00:53:59;;;;;;;35.00;25.63;;;7.20;99.90;;;;;;4916200;29;20474;-82
2022/12/27 00:56:28;;;;;;;26.90;23.07;;;7.10;99.90;;;;;;4899194;29;20474;-82
2022/12/27 00:58:54;;;;;;;29.60;24.80;;;7.10;99.90;;;;;;4898948;29;20058;-82
2022/12/27 01:01:21;;;;;;;43.20;26.07;;;7.10;99.90;;;;;;4911725;28;21537;-82
2022/12/27 01:03:47;;;;;;;36.23;26.03;;;7.10;99.90;;;;;;4913006;29;20058;-82
2022/12/27 01:06:18;;;;;;;30.07;24.23;;;7.10;99.90;;;;;;4917557;29;20386;-82
2022/12/27 01:08:44;;;;;;;33.88;25.48;;;7.10;99.90;;;;;;4918031;29;20035;-82
2022/12/27 01:11:11;;;;;;;43.70;24.87;;;7.10;99.90;;;;;;4917991;29;20035;-82
2022/12/27 01:13:37;;;;;;;30.30;24.10;;;7.00;99.90;;;;;;4917514;29;20482;-81
2022/12/27 01:16:17;;;;;;;30.33;24.13;;;7.00;99.90;;;;;;4915321;28;20032;-82
2022/12/27 01:18:43;;;;;;;26.97;24.17;;;7.00;99.90;;;;;;4918134;29;20586;-81
2022/12/27 01:21:12;;;;;;;31.17;23.00;;;7.00;99.90;;;;;;4942122;29;20058;-82
2022/12/27 01:23:38;;;;;;;36.87;23.57;;;7.00;99.90;;;;;;4934920;29;20043;-82
2022/12/27 01:26:06;;;;;;;33.63;24.50;;;7.00;99.90;;;;;;4939785;28;20034;-82
2022/12/27 01:28:32;;;;;;;32.10;24.63;;;7.00;99.90;;;;;;4941051;29;20482;-82
2022/12/27 01:31:06;;;;;;;33.00;24.97;;;6.90;99.90;;;;;;4932051;28;20036;-82
2022/12/27 01:33:33;;;;;;;30.27;22.70;;;6.90;99.90;;;;;;4918056;29;20044;-83
2022/12/27 01:36:10;;;;;;;29.00;22.07;;;6.90;99.90;;;;;;4933780;29;20043;-83
2022/12/27 01:38:36;;;;;;;27.13;23.90;;;6.90;99.90;;;;;;4934989;29;20051;-83
2022/12/27 01:42:50;;;;;;;29.37;23.63;;;6.90;99.90;;;;;;4931525;29;20482;-83
2022/12/27 01:43:48;;;;;;;29.37;23.67;;;6.90;99.90;;;;;;4932549;29;20508;-83
2022/12/27 01:46:15;;;;;;;29.30;21.83;;;6.80;99.90;;;;;;4919767;28;20032;-83
2022/12/27 01:48:41;;;;;;;29.60;23.27;;;6.80;99.90;;;;;;4914619;29;20494;-82
2022/12/27 01:51:07;;;;;;;32.73;24.37;;;6.90;99.90;;;;;;4930402;29;20040;-83
2022/12/27 01:53:35;;;;;;;34.20;24.50;;;6.90;99.90;;;;;;4917531;29;20508;-82
2022/12/27 01:56:03;;;;;;;30.03;23.50;;;6.90;99.90;;;;;;4935863;29;20043;-83
2022/12/27 01:58:30;;;;;;;29.43;22.20;;;6.90;99.90;;;;;;4936815;29;20051;-83
2022/12/27 02:00:57;;;;;;;32.53;24.33;;;6.90;99.90;;;;;;4918815;28;20040;-83
2022/12/27 02:03:29;;;;;;;32.40;22.93;;;6.90;99.90;;;;;;4919514;29;20044;-83
2022/12/27 02:05:56;;;;;;;28.60;21.70;;;6.90;99.90;;;;;;4920898;29;20055;-83
2022/12/27 02:08:37;;;;;;;33.37;24.30;;;6.80;99.90;;;;;;4936454;29;20051;-83
2022/12/27 02:11:04;;;;;;;31.58;23.63;;;6.80;99.90;;;;;;4919730;29;20044;-83
2022/12/27 02:13:31;;;;;;;32.17;23.90;;;6.80;99.90;;;;;;4951743;29;20047;-83
2022/12/27 02:15:58;;;;;;;34.87;24.47;;;6.80;99.90;;;;;;4918106;28;20378;-83
2022/12/27 02:18:24;;;;;;;27.80;23.80;;;6.70;99.90;;;;;;4935325;29;20028;-83
2022/12/27 02:21:11;;;;;;;24.53;21.70;;;6.70;99.90;;;;;;4942110;28;20052;-83
2022/12/27 02:24:28;;;;;;;31.60;23.63;;;6.70;99.90;;;;;;4918797;29;20024;-83
2022/12/27 02:27:23;;;;;;;34.33;23.30;;;6.80;99.90;;;;;;4937673;29;20055;-83
2022/12/27 02:29:54;;;;;;;22.47;19.90;;;6.70;99.90;;;;;;4931536;29;20050;-83
2022/12/27 02:32:20;;;;;;;;;;;6.70;99.90;;;;;;4938397;28;20405;-83
2022/12/27 02:35:07;;;;;;;26.43;22.03;;;6.70;99.90;;;;;;4954737;29;19953;-83
2022/12/27 02:37:35;;;;;;;24.27;20.63;;;6.70;99.90;;;;;;4940875;29;20043;-83
2022/12/27 02:54:31;;;;;;;24.63;21.90;;;6.70;99.90;;;;;;4878043;29;20044;-83
2022/12/27 02:57:12;;;;;;;26.70;21.97;;;6.70;99.90;;;;;;4878471;29;20318;-83
2022/12/27 03:06:38;;;;;;;27.70;21.33;;;6.60;99.90;;;;;;4873476;29;20044;-83
2022/12/27 03:08:38;;;;;;;26.77;22.40;;;6.60;99.90;;;;;;4872827;29;20041;-83
2022/12/27 03:16:56;;;;;;;26.13;21.10;;;6.60;99.90;;;;;;4826558;29;20049;-83
2022/12/27 03:27:36;;;;;;;24.70;22.17;;;6.50;99.90;;;;;;4824397;29;20523;-83
2022/12/27 03:33:12;;;;;;;25.73;22.27;;;6.50;99.90;;;;;;4906178;29;20605;-83
2022/12/27 03:38:42;;;;;;;23.83;21.30;;;6.40;99.90;;;;;;4902159;29;20140;-83
2022/12/27 03:43:52;;;;;;;25.87;23.17;;;6.50;99.90;;;;;;4886435;29;20180;-83
2022/12/27 03:46:32;;;;;;;26.43;22.63;;;6.60;99.90;;;;;;4894247;29;20040;-83
2022/12/27 03:49:07;;;;;;;26.43;22.17;;;6.60;99.90;;;;;;4913781;29;20040;-83
2022/12/27 03:51:41;;;;;;;29.57;22.50;;;6.50;99.90;;;;;;4934123;29;20040;-83
2022/12/27 03:54:15;;;;;;;27.57;23.57;;;6.60;99.90;;;;;;4923390;29;20040;-83
2022/12/27 03:56:41;;;;;;;26.33;23.23;;;6.50;99.90;;;;;;4914591;29;20040;-83
2022/12/27 03:59:08;;;;;;;25.43;22.83;;;6.20;99.90;;;;;;4931801;29;20385;-83
2022/12/27 04:01:34;;;;;;;26.80;21.53;;;5.90;99.90;;;;;;4947647;28;20040;-83
2022/12/27 04:04:00;;;;;;;25.80;22.10;;;5.60;99.90;;;;;;4935490;29;20047;-83
2022/12/27 04:06:26;;;;;;;27.40;21.83;;;5.40;99.90;;;;;;4950518;29;20028;-82
2022/12/27 04:36:17;;;;;;;26.20;22.97;;;6.00;99.90;;;;;;4923764;29;20047;-83
2022/12/27 04:38:43;;;;;;;30.50;22.83;;;6.00;99.90;;;;;;4931008;29;20043;-84
2022/12/27 04:55:16;;;;;;;25.17;21.50;;;6.30;99.90;;;;;;4910055;29;20039;-85
2022/12/27 04:57:43;;;;;;;29.63;20.40;;;6.30;99.90;;;;;;4925145;29;20035;-85
2022/12/27 05:02:55;;;;;;;28.63;20.40;;;6.40;99.90;;;;;;4922352;29;20032;-84
2022/12/27 05:05:21;;;;;;;24.50;20.50;;;6.20;99.90;;;;;;4927426;29;20039;-84
2022/12/27 05:16:00;;;;;;;22.00;19.90;;;5.90;99.90;;;;;;4934816;28;20063;-85
2022/12/27 05:18:26;;;;;;;22.00;19.40;;;5.80;99.90;;;;;;4917303;29;20028;-85
2022/12/27 05:20:52;;;;;;;21.63;19.40;;;5.70;99.90;;;;;;4928311;29;20047;-83
2022/12/27 05:26:03;;;;;;;21.47;19.27;;;5.60;99.90;;;;;;4932848;29;20035;-82
2022/12/27 05:28:29;;;;;;;21.93;19.53;;;5.70;99.90;;;;;;4917434;29;20500;-83
2022/12/27 05:31:00;;;;;;;22.47;19.80;;;5.70;99.90;;;;;;4913867;29;20039;-83
2022/12/27 05:33:26;;;;;;;21.33;19.23;;;5.80;99.90;;;;;;4919814;29;20042;-83
2022/12/27 05:35:52;;;;;;;21.37;19.17;;;5.80;99.90;;;;;;4934337;29;20504;-84
2022/12/27 05:38:18;;;;;;;20.37;18.27;;;5.70;99.90;;;;;;4917793;29;20028;-84
2022/12/27 05:40:44;;;;;;;25.17;19.53;;;5.60;99.90;;;;;;4919603;29;20493;-83
2022/12/27 05:43:10;;;;;;;24.13;20.33;;;5.60;99.90;;;;;;4933183;29;20040;-83
2022/12/27 05:45:37;;;;;;;27.73;20.37;;;5.70;99.90;;;;;;4934103;28;20408;-82
2022/12/27 05:48:03;;;;;;;27.87;20.30;;;5.60;99.90;;;;;;4937539;29;20039;-83
2022/12/27 05:50:29;;;;;;;21.03;19.13;;;5.50;99.90;;;;;;4937391;29;20035;-82
2022/12/27 05:52:55;;;;;;;22.60;20.27;;;5.50;99.90;;;;;;4934448;29;20374;-84
2022/12/27 05:55:21;;;;;;;22.63;20.50;;;5.40;99.90;;;;;;4922841;29;20036;-83
2022/12/27 05:57:47;;;;;;;24.73;21.07;;;5.40;99.90;;;;;;4918849;29;20028;-83
2022/12/27 06:00:14;;;;;;;24.00;21.80;;;5.50;99.90;;;;;;4919787;28;20038;-83
2022/12/27 06:02:41;;;;;;;24.17;21.67;;;5.60;99.90;;;;;;4914644;29;20043;-83
2022/12/27 06:05:08;;;;;;;24.20;20.97;;;5.80;99.90;;;;;;4932782;29;20036;-83
2022/12/27 06:07:35;;;;;;;24.00;21.67;;;5.90;99.90;;;;;;4893061;29;20486;-83
2022/12/27 06:10:03;;;;;;;26.93;21.70;;;5.80;99.90;;;;;;4902011;29;20036;-84
2022/12/27 06:12:29;;;;;;;26.73;21.77;;;5.70;99.90;;;;;;4902010;29;20035;-83
2022/12/27 06:14:55;;;;;;;23.57;20.73;;;5.70;99.90;;;;;;4904557;29;20046;-83
2022/12/27 06:17:21;;;;;;;22.40;19.93;;;5.80;99.90;;;;;;4904029;29;20044;-83
2022/12/27 06:19:47;;;;;;;27.20;22.43;;;5.90;99.90;;;;;;4904908;29;20052;-83
2022/12/27 06:22:14;;;;;;;24.50;21.90;;;6.00;99.90;;;;;;4913823;29;20047;-83
2022/12/27 06:24:40;;;;;;;27.03;20.67;;;6.10;99.90;;;;;;4901644;29;20181;-85
2022/12/27 06:27:06;;;;;;;24.17;21.70;;;6.10;99.90;;;;;;4929673;29;20042;-84
2022/12/27 06:29:33;;;;;;;25.10;22.50;;;6.10;99.90;;;;;;4899838;29;20047;-83
2022/12/27 06:31:59;;;;;;;25.40;22.73;;;6.00;99.90;;;;;;4901053;29;20040;-83
2022/12/27 06:34:25;;;;;;;25.63;23.00;;;6.10;99.90;;;;;;4901854;29;20036;-83
2022/12/27 06:36:51;;;;;;;25.80;23.30;;;6.20;99.90;;;;;;4895685;29;20047;-83
2022/12/27 06:39:17;;;;;;;21.77;19.50;;;6.30;99.90;;;;;;4900268;29;20032;-83
2022/12/27 06:41:44;;;;;;;21.67;19.50;;;6.40;99.90;;;;;;4896664;29;20063;-83
2022/12/27 06:44:10;;;;;;;25.67;22.47;;;6.40;99.90;;;;;;4888656;29;20040;-83
2022/12/27 06:46:36;;;;;;;27.87;22.07;;;6.30;99.90;;;;;;4902612;29;20410;-84
2022/12/27 06:49:02;;;;;;;25.13;22.53;;;6.30;99.90;;;;;;4918068;29;20040;-84
2022/12/27 06:51:28;;;;;;;25.43;22.83;;;6.30;99.90;;;;;;4885595;29;20040;-84
2022/12/27 06:53:54;;;;;;;25.60;22.93;;;6.20;99.90;;;;;;4901368;29;20105;-85
2022/12/27 06:56:21;;;;;;;25.77;23.30;;;6.20;99.90;;;;;;4921326;29;20110;-83
2022/12/27 06:58:48;;;;;;;25.90;23.20;;;6.10;99.90;;;;;;4934451;29;20048;-84
2022/12/27 07:01:26;;;;;;;24.07;21.67;;;6.10;99.90;;;;;;4935111;28;20042;-83
2022/12/27 07:03:54;;;;;;;26.60;20.93;;;6.30;99.90;;;;;;4919407;29;20055;-84
2022/12/27 07:06:21;;;;;;;27.63;21.53;;;6.50;99.90;;;;;;4919065;29;20477;-84
2022/12/27 07:08:48;;;;;;;23.33;20.23;;;6.30;99.90;;;;;;4904074;29;20056;-84
2022/12/27 07:11:14;;;;;;;24.80;20.60;;;6.20;99.90;;;;;;4919107;29;20036;-83
2022/12/27 07:13:42;;;;;;;21.20;19.07;;;6.00;99.90;;;;;;4915176;29;20044;-85
2022/12/27 07:16:10;;;;;;;23.57;20.80;;;5.80;99.90;;;;;;4930858;28;20381;-86
2022/12/27 07:18:36;;;;;;;25.27;22.67;;;5.80;99.90;;;;;;4920284;29;20048;-86
2022/12/27 07:21:04;;;;;;;24.40;20.83;;;5.80;99.90;;;;;;4925023;29;20062;-85
2022/12/27 07:23:30;;;;;;;23.03;19.53;;;5.80;99.90;;;;;;4935191;29;20356;-86
2022/12/27 07:26:07;;;;;;;32.57;23.40;;;5.70;99.90;;;;;;4941653;29;20027;-86
2022/12/27 07:28:33;;;;;;;28.07;24.93;;;5.70;99.90;;;;;;4954439;29;20052;-87
2022/12/27 07:30:59;;;;;;;65.40;39.03;;;6.00;99.90;;;;;;4944375;29;20040;-87
2022/12/27 07:33:25;;;;;;;49.80;32.77;;;6.10;99.90;;;;;;4934758;29;20035;-87
2022/12/27 07:36:00;;;;;;;63.23;38.30;;;6.20;99.90;;;;;;4923799;29;20071;-86
2022/12/27 07:38:26;;;;;;;68.60;39.10;;;6.30;99.90;;;;;;4942710;29;20032;-85
2022/12/27 07:40:52;;;;;;;47.33;32.60;;;6.40;99.90;;;;;;4917413;29;20035;-86
2022/12/27 07:43:19;;;;;;;49.37;35.33;;;6.40;99.90;;;;;;4946786;29;20389;-86
2022/12/27 07:45:45;;;;;;;52.37;34.53;;;6.50;99.90;;;;;;4946531;28;20043;-86
2022/12/27 07:48:11;;;;;;;47.77;32.50;;;6.50;99.90;;;;;;4926371;29;20137;-85
2022/12/27 07:50:37;;;;;;;41.97;30.57;;;6.50;99.90;;;;;;4920101;29;20032;-86
2022/12/27 07:53:03;;;;;;;36.97;27.43;;;6.50;99.90;;;;;;4917052;29;20055;-85
2022/12/27 07:55:29;;;;;;;34.80;24.20;;;6.60;99.90;;;;;;4916856;29;20028;-85
2022/12/27 07:57:56;;;;;;;47.47;33.03;;;6.60;99.90;;;;;;4935178;29;20035;-86
2022/12/27 08:00:22;;;;;;;66.37;39.20;;;6.60;99.90;;;;;;4914232;28;20043;-87
2022/12/27 08:02:48;;;;;;;91.27;48.20;;;6.60;99.90;;;;;;4915570;29;20389;-87
2022/12/27 08:05:14;;;;;;;85.87;47.77;;;6.60;99.90;;;;;;4925513;29;20040;-86
2022/12/27 08:07:40;;;;;;;68.93;41.00;;;6.70;99.90;;;;;;4918578;29;20051;-85
2022/12/27 08:10:07;;;;;;;38.80;29.77;;;6.60;99.90;;;;;;4925023;29;20485;-85
2022/12/27 08:12:33;;;;;;;37.57;28.67;;;6.50;99.90;;;;;;4934306;29;20039;-87
2022/12/27 08:14:59;;;;;;;35.90;30.23;;;6.50;99.90;;;;;;4933622;29;20341;-87
2022/12/27 08:17:26;;;;;;;31.47;27.20;;;6.50;99.90;;;;;;4932990;28;20023;-88
2022/12/27 08:19:53;;;;;;;28.37;25.57;;;6.50;99.90;;;;;;4912681;29;20102;-87
2022/12/27 08:22:19;;;;;;;26.73;23.60;;;6.50;99.90;;;;;;4901023;29;20036;-87
2022/12/27 08:24:45;;;;;;;26.43;23.50;;;6.40;99.90;;;;;;4918956;29;20030;-86
2022/12/27 08:27:11;;;;;;;25.67;23.00;;;6.40;99.90;;;;;;4933569;29;20035;-85
2022/12/27 08:29:37;;;;;;;26.00;23.50;;;6.40;99.90;;;;;;4930944;29;20493;-85
2022/12/27 08:32:04;;;;;;;25.37;22.80;;;6.40;99.90;;;;;;4934771;28;20035;-85
2022/12/27 08:34:30;;;;;;;24.47;22.17;;;6.40;99.90;;;;;;4918337;29;20031;-85
2022/12/27 08:36:56;;;;;;;26.23;23.53;;;6.50;99.90;;;;;;4917682;29;20046;-85
2022/12/27 08:39:23;;;;;;;26.80;24.03;;;6.50;99.90;;;;;;4929206;29;20055;-88
2022/12/27 08:41:50;;;;;;;25.50;23.17;;;6.40;99.90;;;;;;4919340;29;20028;-86
2022/12/27 08:44:16;;;;;;;29.13;23.40;;;6.30;99.90;;;;;;4934992;29;20382;-86
2022/12/27 08:46:43;;;;;;;26.60;23.77;;;6.20;99.90;;;;;;4933396;28;20047;-87
2022/12/27 08:49:09;;;;;;;32.17;25.03;;;6.20;99.90;;;;;;4887388;29;20056;-87
2022/12/27 08:51:35;;;;;;;26.17;23.70;;;6.20;99.90;;;;;;4918911;29;20060;-87
2022/12/27 08:54:01;;;;;;;25.83;23.37;;;6.20;99.90;;;;;;4930578;29;20473;-87
2022/12/27 08:56:27;;;;;;;23.87;21.43;;;6.30;99.90;;;;;;4914347;29;20035;-86
2022/12/27 08:58:53;;;;;;;25.67;21.23;;;6.30;99.90;;;;;;4910879;29;20039;-87
2022/12/27 09:01:19;;;;;;;25.87;22.83;;;6.30;99.90;;;;;;4916504;29;20043;-86
2022/12/27 09:03:45;;;;;;;22.93;20.63;;;6.30;99.90;;;;;;4915300;29;20071;-85
2022/12/27 09:06:14;;;;;;;25.37;22.67;;;6.30;99.90;;;;;;4935075;29;20028;-84
2022/12/27 09:08:41;;;;;;;25.03;22.53;;;6.30;99.90;;;;;;4907127;29;20103;-83
2022/12/27 09:11:11;;;;;;;23.90;21.33;;;6.50;99.90;;;;;;4903024;29;20398;-85
2022/12/27 09:13:37;;;;;;;22.50;20.30;;;6.60;99.90;;;;;;4919903;29;20473;-82
2022/12/27 09:16:23;;;;;;;22.97;18.00;;;6.60;99.90;;;;;;4902033;29;20493;-84
2022/12/27 09:18:51;;;;;;;23.37;21.13;;;6.40;99.90;;;;;;4920158;29;20024;-85
2022/12/27 09:21:17;;;;;;;24.93;22.47;;;6.30;99.90;;;;;;4930853;29;20080;-85
2022/12/27 09:23:44;;;;;;;23.53;21.20;;;6.50;99.90;;;;;;4937593;29;20035;-84
2022/12/27 09:26:11;;;;;;;30.70;23.07;;;6.60;99.90;;;;;;4944398;29;20484;-85
2022/12/27 09:28:37;;;;;;;30.13;22.43;;;6.70;99.90;;;;;;4955291;29;20035;-85
2022/12/27 09:31:04;;;;;;;24.93;22.47;;;6.70;99.90;;;;;;4917873;29;20036;-85
2022/12/27 09:33:30;;;;;;;26.60;23.80;;;6.90;99.90;;;;;;4918720;29;20389;-85
2022/12/27 09:36:09;;;;;;;34.10;30.07;;;6.90;99.90;;;;;;4916798;29;20057;-85
2022/12/27 09:38:35;;;;;;;44.80;40.20;;;6.90;99.90;;;;;;4919193;29;20027;-85
2022/12/27 09:41:10;;;;;;;46.17;41.27;;;7.00;99.90;;;;;;4936284;29;20038;-85
2022/12/27 09:44:02;;;;;;;45.13;38.20;;;7.00;99.90;;;;;;4936247;29;20497;-84
2022/12/27 09:46:46;;;;;;;37.33;29.40;;;7.00;99.90;;;;;;4952547;28;20401;-85
2022/12/27 09:49:18;;;;;;;35.53;28.87;;;6.90;99.90;;;;;;4919998;29;20059;-85
2022/12/27 09:52:10;;;;;;;44.80;36.73;;;7.00;99.90;;;;;;4931981;29;20055;-85
2022/12/27 09:54:48;;;;;;;46.63;41.90;;;7.00;99.90;;;;;;4933009;29;20035;-84
2022/12/27 09:57:21;;;;;;;36.53;32.80;;;7.10;99.90;;;;;;4937129;29;20039;-86
2022/12/27 09:59:54;;;;;;;43.47;36.57;;;7.20;99.90;;;;;;4926718;29;20383;-88
2022/12/27 10:02:22;;;;;;;38.57;34.43;;;7.40;99.90;;;;;;4911644;29;20036;-87
2022/12/27 10:04:48;;;;;;;37.87;34.00;;;7.50;99.90;;;;;;4926884;29;20024;-87
2022/12/27 10:07:18;;;;;;;36.53;32.63;;;7.70;99.90;;;;;;4928080;29;20024;-87
2022/12/27 10:09:50;;;;;;;34.23;30.77;;;7.80;99.90;;;;;;4932114;29;20055;-90
2022/12/27 10:12:28;;;;;;;40.17;32.70;;;7.90;99.90;;;;;;4951850;29;20062;-88
2022/12/27 10:15:20;;;;;;;36.50;32.63;;;8.00;99.90;;;;;;4936064;29;20035;-88
2022/12/27 10:18:11;;;;;;;36.87;30.90;;;8.10;99.90;;;;;;4925733;29;20044;-87
2022/12/27 10:21:02;;;;;;;31.13;27.02;;;8.10;99.90;;;;;;4936030;29;20413;-87
2022/12/27 10:23:30;;;;;;;30.90;26.37;;;8.20;99.90;;;;;;4936586;29;20039;-87
2022/12/27 10:26:16;;;;;;;31.90;25.23;;;8.50;99.90;;;;;;4919015;29;20036;-87
2022/12/27 10:28:44;;;;;;;29.10;25.63;;;8.80;99.90;;;;;;4901682;29;20043;-86
2022/12/27 10:31:18;;;;;;;29.42;25.65;;;9.00;99.90;;;;;;4916816;29;20403;-87
2022/12/27 10:33:45;;;;;;;32.58;26.73;;;9.40;99.90;;;;;;4949460;29;20028;-84
2022/12/27 10:36:13;;;;;;;31.70;27.60;;;9.10;99.90;;;;;;4933023;29;20046;-89
2022/12/27 10:38:39;;;;;;;30.75;27.40;;;9.00;99.90;;;;;;4931093;29;20026;-90
2022/12/27 10:41:36;;;;;;;28.17;25.20;;;9.00;99.90;;;;;;4930704;29;20036;-87
2022/12/27 10:44:10;;;;;;;29.48;23.00;;;9.00;99.90;;;;;;4939886;29;20051;-85
2022/12/27 10:46:37;;;;;;;25.30;21.75;;;9.10;99.90;;;;;;4906561;29;20051;-84
2022/12/27 10:49:05;;;;;;;22.95;20.65;;;9.20;99.90;;;;;;4918785;29;20050;-87
2022/12/27 10:51:36;;;;;;;21.20;19.20;;;9.30;99.90;;;;;;4932467;29;20028;-87
2022/12/27 10:54:03;;;;;;;31.73;25.95;;;9.50;99.90;;;;;;4934861;29;20035;-88
2022/12/27 10:56:34;;;;;;;20.98;19.00;;;9.70;99.90;;;;;;4921211;29;20099;-89
2022/12/27 10:59:06;;;;;;;23.88;20.05;;;9.90;99.90;;;;;;4916674;29;20039;-87
2022/12/27 11:01:33;;;;;;;20.75;18.63;;;9.90;99.90;;;;;;4917916;28;20040;-87
2022/12/27 11:04:26;;;;;;;23.45;20.27;;;9.90;99.90;;;;;;4917854;29;20036;-90
2022/12/27 11:07:01;;;;;;;29.40;22.75;;;10.00;99.90;;;;;;4917386;29;20044;-88
2022/12/27 11:09:27;;;;;;;26.08;20.45;;;10.10;99.90;;;;;;4932214;29;20063;-90
2022/12/27 11:12:12;;;;;;;25.58;21.00;;;10.20;99.90;;;;;;4917486;29;20032;-90
2022/12/27 11:14:57;;;;;;;24.13;21.80;;;10.40;99.90;;;;;;4934138;29;20059;-88
2022/12/27 11:17:25;;;;;;;36.50;27.35;;;10.50;99.90;;;;;;4920967;28;20033;-89
2022/12/27 11:19:51;;;;;;;25.58;21.30;;;10.60;99.90;;;;;;4906505;29;20048;-90
2022/12/27 11:22:17;;;;;;;25.88;23.38;;;10.60;99.90;;;;;;4903039;29;20054;-89
2022/12/27 11:24:45;;;;;;;21.23;19.13;;;10.70;99.90;;;;;;4915773;29;20035;-90
2022/12/27 11:27:23;;;;;;;21.98;19.58;;;10.80;99.90;;;;;;4933887;29;20023;-91
2022/12/27 11:29:50;;;;;;;20.98;19.13;;;10.90;99.90;;;;;;4938087;29;20047;-90
2022/12/27 11:32:16;;;;;;;21.35;19.35;;;10.90;99.90;;;;;;4926401;28;20051;-89
2022/12/27 11:34:44;;;;;;;22.55;20.17;;;11.00;99.90;;;;;;4917571;29;20040;-88
2022/12/27 11:37:13;;;;;;;21.55;19.20;;;11.10;99.90;;;;;;4918157;29;20488;-90
2022/12/27 11:39:50;;;;;;;18.33;16.73;;;11.20;99.90;;;;;;4916612;29;20039;-89
2022/12/27 11:42:37;;;;;;;16.92;15.48;;;11.20;99.90;;;;;;4918875;29;20031;-88
2022/12/27 11:45:18;;;;;;;18.73;17.15;;;11.20;99.90;;;;;;4885906;28;20055;-87
2022/12/27 11:47:50;;;;;;;;;;;11.30;99.90;;;;;;4926082;29;20024;-90
2022/12/27 11:50:28;;;;;;;16.52;15.32;;;11.20;99.90;;;;;;4917150;29;19919;-91
2022/12/27 11:53:11;;;;;;;17.15;15.65;;;11.10;99.90;;;;;;4915527;29;20032;-89
2022/12/27 11:55:43;;;;;;;18.58;16.67;;;11.10;99.90;;;;;;4927240;29;20048;-89
2022/12/27 11:58:24;;;;;;;19.35;18.08;;;11.10;99.90;;;;;;4930613;29;20098;-87
2022/12/27 12:01:27;;;;;;;19.50;17.25;;;11.10;99.90;;;;;;4927563;28;20044;-87
2022/12/27 12:04:11;;;;;;;17.45;15.73;;;11.00;99.90;;;;;;4908479;29;20040;-87
2022/12/27 12:06:43;;;;;;;16.70;15.27;;;11.00;99.90;;;;;;4902700;29;20040;-87
2022/12/27 12:09:17;;;;;;;17.80;16.23;;;11.00;99.90;;;;;;4914993;29;20060;-87
2022/12/27 12:12:07;;;;;;;17.52;15.95;;;10.90;99.90;;;;;;4898486;29;20031;-86
2022/12/27 12:14:54;;;;;;;18.35;16.65;;;11.00;99.90;;;;;;4928936;29;20425;-86
2022/12/27 12:17:44;;;;;;;17.15;15.93;;;11.00;99.90;;;;;;4907318;29;20044;-87
2022/12/27 12:20:33;;;;;;;18.45;17.05;;;11.20;99.90;;;;;;4913337;29;20467;-87
2022/12/27 12:23:15;;;;;;;17.58;16.27;;;11.20;99.90;;;;;;4914037;29;20055;-86
2022/12/27 12:25:46;;;;;;;15.23;14.05;;;11.50;99.90;;;;;;4913669;29;20188;-87
2022/12/27 12:28:53;;;;;;;15.95;14.32;;;11.80;99.90;;;;;;4904050;29;20043;-86
2022/12/27 12:31:30;;;;;;;15.77;14.70;;;12.00;99.90;;;;;;4872357;29;20053;-86
2022/12/27 12:34:32;;;;;;;15.63;14.43;;;12.10;99.90;;;;;;4845131;29;20033;-87
2022/12/27 12:37:01;;;;;;;14.88;13.77;;;12.30;99.90;;;;;;4859181;29;20402;-87
2022/12/27 12:39:40;;;;;;;14.77;13.63;;;12.40;99.90;;;;;;4859724;29;20053;-88
2022/12/27 12:42:18;;;;;;;15.15;13.95;;;12.50;99.90;;;;;;4833284;29;20046;-87
2022/12/27 12:45:10;;;;;;;19.40;17.30;;;12.70;99.90;;;;;;4858390;29;20041;-88
2022/12/27 12:47:39;;;;;;;65.93;31.73;;;12.60;99.90;;;;;;4827254;29;20041;-88
2022/12/27 12:50:17;;;;;;;158.75;59.25;;;12.70;99.90;;;;;;4841240;29;20070;-87
2022/12/27 12:53:14;;;;;;;17.65;15.93;;;12.90;99.90;;;;;;4831637;29;20080;-87
2022/12/27 12:56:04;;;;;;;21.83;18.00;;;12.80;99.90;;;;;;4819801;29;20049;-86
2022/12/27 12:58:49;;;;;;;18.83;16.98;;;12.80;99.90;;;;;;4820745;29;20046;-86
2022/12/27 13:01:43;;;;;;;27.27;22.02;;;12.70;99.90;;;;;;4825298;29;20037;-87
2022/12/27 13:04:32;;;;;;;18.83;17.02;;;12.80;99.90;;;;;;4844577;29;20053;-87
2022/12/27 13:07:01;;;;;;;17.50;16.02;;;12.90;99.90;;;;;;4857185;29;20030;-87
2022/12/27 13:09:48;;;;;;;21.50;19.75;;;13.00;99.90;;;;;;4857059;29;20407;-87
2022/12/27 13:12:35;;;;;;;16.25;15.25;;;13.10;99.90;;;;;;4858588;29;20054;-87
2022/12/27 13:15:22;;;;;;;19.30;17.77;;;13.10;99.90;;;;;;4864051;29;20044;-88
2022/12/27 13:18:22;;;;;;;15.45;14.52;;;13.20;99.90;;;;;;4855191;29;20052;-86
2022/12/27 13:20:52;;;;;;;18.65;17.27;;;13.20;99.90;;;;;;4818234;29;20393;-87
2022/12/27 13:23:18;;;;;;;16.70;15.27;;;13.20;99.90;;;;;;4820090;29;20421;-86
2022/12/27 13:26:00;;;;;;;16.83;15.63;;;13.30;99.90;;;;;;4827854;29;20073;-86
2022/12/27 13:28:57;;;;;;;15.35;14.55;;;13.40;99.90;;;;;;4839718;29;20097;-86
2022/12/27 13:31:58;;;;;;;16.25;15.00;;;13.40;99.90;;;;;;4823284;29;20408;-87
2022/12/27 13:34:46;;;;;;;16.80;15.57;;;13.40;99.90;;;;;;4826122;29;20402;-87
2022/12/27 13:37:21;;;;;;;18.63;17.52;;;13.40;99.90;;;;;;4818588;29;20090;-87
2022/12/27 13:40:06;;;;;;;25.02;22.73;;;13.50;99.90;;;;;;4838816;29;20034;-86
2022/12/27 13:42:52;;;;;;;20.50;19.23;;;13.50;99.90;;;;;;4828309;29;20037;-87
2022/12/27 13:45:33;;;;;;;21.00;19.60;;;13.40;99.90;;;;;;4819088;29;20049;-86
2022/12/27 13:48:20;;;;;;;;;;;13.20;99.90;;;;;;4820941;29;20559;-86
2022/12/27 13:51:07;;;;;;;13.13;11.93;;;13.30;99.90;;;;;;4841406;29;19920;-86
2022/12/27 13:53:36;;;;;;;12.43;11.63;;;13.10;99.90;;;;;;4842449;29;20042;-85
2022/12/27 13:56:08;;;;;;;14.23;13.13;;;13.00;99.90;;;;;;4853946;29;20049;-87
2022/12/27 13:59:04;;;;;;;13.75;12.90;;;13.00;99.90;;;;;;4879362;29;20411;-86
2022/12/27 14:01:41;;;;;;;14.52;13.35;;;12.90;99.90;;;;;;4896440;29;20530;-86
2022/12/27 14:04:25;;;;;;;12.52;11.63;;;12.90;99.90;;;;;;4866335;29;20039;-86
2022/12/27 14:07:02;;;;;;;14.45;13.38;;;12.90;99.90;;;;;;4897111;29;20047;-86
2022/12/27 14:10:11;;;;;;;15.13;13.93;;;12.80;99.90;;;;;;4881712;29;20037;-86
2022/12/27 14:12:46;;;;;;;14.73;13.52;;;12.80;99.90;;;;;;4822484;29;20046;-86
2022/12/27 14:15:36;;;;;;;14.80;13.25;;;12.70;99.90;;;;;;4821816;29;20066;-86
2022/12/27 14:18:11;;;;;;;16.03;14.73;;;12.70;99.90;;;;;;4813053;29;20042;-86
2022/12/27 14:20:59;;;;;;;16.95;15.65;;;12.60;99.90;;;;;;4814743;29;20300;-87
2022/12/27 14:23:52;;;;;;;17.42;16.15;;;12.60;99.90;;;;;;4822509;29;20038;-86
2022/12/27 14:26:37;;;;;;;15.13;14.10;;;12.70;99.90;;;;;;4817314;29;20046;-85
2022/12/27 14:29:30;;;;;;;13.50;12.30;;;12.70;99.90;;;;;;4840408;29;20561;-85
2022/12/27 14:32:04;;;;;;;15.15;13.98;;;12.70;99.90;;;;;;4844334;29;20065;-86
2022/12/27 14:34:49;;;;;;;13.05;12.15;;;12.60;99.90;;;;;;4840249;29;20260;-85
2022/12/27 14:37:44;;;;;;;15.43;14.25;;;12.70;99.90;;;;;;4840859;29;20503;-87
2022/12/27 14:40:18;;;;;;;14.05;12.93;;;12.60;99.90;;;;;;4855986;29;20696;-86